sensor_id;sensor_type;location;lat;lon;timestamp;P1;durP1;ratioP1;P2;durP2;ratioP2
23567;SDS011;11962;50.838;4.430;2024-03-06T00:02:07;6.10;;;4.30;;
23567;SDS011;11962;50.838;4.430;2024-03-06T00:04:33;7.95;;;4.60;;
23567;SDS011;11962;50.838;4.430;2024-03-06T00:07:00;5.28;;;4.32;;
23567;SDS011;11962;50.838;4.430;2024-03-06T00:09:26;6.93;;;4.40;;
23567;SDS011;11962;50.838;4.430;2024-03-06T00:11:52;5.38;;;3.95;;
23567;SDS011;11962;50.838;4.430;2024-03-06T00:14:18;6.50;;;4.00;;
23567;SDS011;11962;50.838;4.430;2024-03-06T00:16:46;5.75;;;4.20;;
23567;SDS011;11962;50.838;4.430;2024-03-06T00:19:13;6.22;;;4.03;;
23567;SDS011;11962;50.838;4.430;2024-03-06T00:21:38;6.05;;;4.13;;
23567;SDS011;11962;50.838;4.430;2024-03-06T00:24:04;5.10;;;3.28;;
23567;SDS011;11962;50.838;4.430;2024-03-06T00:26:30;7.18;;;3.90;;
23567;SDS011;11962;50.838;4.430;2024-03-06T00:28:56;8.07;;;4.10;;
23567;SDS011;11962;50.838;4.430;2024-03-06T00:31:21;5.60;;;3.92;;
23567;SDS011;11962;50.838;4.430;2024-03-06T00:33:47;6.72;;;3.80;;
23567;SDS011;11962;50.838;4.430;2024-03-06T00:36:13;7.25;;;4.00;;
23567;SDS011;11962;50.838;4.430;2024-03-06T00:38:39;7.28;;;3.88;;
23567;SDS011;11962;50.838;4.430;2024-03-06T00:41:04;4.97;;;3.97;;
23567;SDS011;11962;50.838;4.430;2024-03-06T00:43:30;6.18;;;4.13;;
23567;SDS011;11962;50.838;4.430;2024-03-06T00:45:56;4.90;;;4.00;;
23567;SDS011;11962;50.838;4.430;2024-03-06T00:48:22;6.75;;;3.95;;
23567;SDS011;11962;50.838;4.430;2024-03-06T00:50:47;6.65;;;3.95;;
23567;SDS011;11962;50.838;4.430;2024-03-06T00:53:13;6.38;;;4.28;;
23567;SDS011;11962;50.838;4.430;2024-03-06T00:55:39;4.85;;;3.63;;
23567;SDS011;11962;50.838;4.430;2024-03-06T00:58:05;6.82;;;4.22;;
23567;SDS011;11962;50.838;4.430;2024-03-06T01:00:32;7.68;;;4.30;;
23567;SDS011;11962;50.838;4.430;2024-03-06T01:02:57;6.68;;;3.80;;
23567;SDS011;11962;50.838;4.430;2024-03-06T01:05:23;8.80;;;4.43;;
23567;SDS011;11962;50.838;4.430;2024-03-06T01:07:49;6.30;;;4.85;;
23567;SDS011;11962;50.838;4.430;2024-03-06T01:10:15;6.03;;;4.18;;
23567;SDS011;11962;50.838;4.430;2024-03-06T01:12:40;6.70;;;4.43;;
23567;SDS011;11962;50.838;4.430;2024-03-06T01:15:10;7.10;;;4.63;;
23567;SDS011;11962;50.838;4.430;2024-03-06T01:17:36;5.57;;;4.40;;
23567;SDS011;11962;50.838;4.430;2024-03-06T01:20:02;8.25;;;5.30;;
23567;SDS011;11962;50.838;4.430;2024-03-06T01:22:31;7.57;;;5.50;;
23567;SDS011;11962;50.838;4.430;2024-03-06T01:24:58;7.72;;;5.57;;
23567;SDS011;11962;50.838;4.430;2024-03-06T01:27:24;8.05;;;5.53;;
23567;SDS011;11962;50.838;4.430;2024-03-06T01:29:50;7.30;;;5.55;;
23567;SDS011;11962;50.838;4.430;2024-03-06T01:32:16;8.02;;;5.70;;
23567;SDS011;11962;50.838;4.430;2024-03-06T01:34:41;9.80;;;7.03;;
23567;SDS011;11962;50.838;4.430;2024-03-06T01:37:07;8.43;;;6.40;;
23567;SDS011;11962;50.838;4.430;2024-03-06T01:39:33;11.20;;;6.45;;
23567;SDS011;11962;50.838;4.430;2024-03-06T01:42:00;10.23;;;6.25;;
23567;SDS011;11962;50.838;4.430;2024-03-06T01:44:26;7.60;;;5.82;;
23567;SDS011;11962;50.838;4.430;2024-03-06T01:46:52;8.20;;;6.05;;
23567;SDS011;11962;50.838;4.430;2024-03-06T01:49:19;10.40;;;6.93;;
23567;SDS011;11962;50.838;4.430;2024-03-06T01:51:48;8.70;;;6.28;;
23567;SDS011;11962;50.838;4.430;2024-03-06T01:54:16;8.30;;;5.90;;
23567;SDS011;11962;50.838;4.430;2024-03-06T01:56:44;10.07;;;6.07;;
23567;SDS011;11962;50.838;4.430;2024-03-06T02:01:37;9.45;;;6.60;;
23567;SDS011;11962;50.838;4.430;2024-03-06T02:04:03;7.95;;;6.28;;
23567;SDS011;11962;50.838;4.430;2024-03-06T02:06:30;9.43;;;5.95;;
23567;SDS011;11962;50.838;4.430;2024-03-06T02:08:56;10.82;;;6.28;;
23567;SDS011;11962;50.838;4.430;2024-03-06T02:11:21;7.75;;;6.15;;
23567;SDS011;11962;50.838;4.430;2024-03-06T02:13:49;7.63;;;5.93;;
23567;SDS011;11962;50.838;4.430;2024-03-06T02:16:15;9.48;;;6.57;;
23567;SDS011;11962;50.838;4.430;2024-03-06T02:18:50;7.90;;;5.63;;
23567;SDS011;11962;50.838;4.430;2024-03-06T02:21:18;8.77;;;6.05;;
23567;SDS011;11962;50.838;4.430;2024-03-06T02:23:44;8.98;;;5.72;;
23567;SDS011;11962;50.838;4.430;2024-03-06T02:26:10;8.98;;;5.85;;
23567;SDS011;11962;50.838;4.430;2024-03-06T02:28:36;8.23;;;5.90;;
23567;SDS011;11962;50.838;4.430;2024-03-06T02:31:01;8.13;;;5.85;;
23567;SDS011;11962;50.838;4.430;2024-03-06T02:33:27;7.65;;;6.18;;
23567;SDS011;11962;50.838;4.430;2024-03-06T02:35:53;8.27;;;6.30;;
23567;SDS011;11962;50.838;4.430;2024-03-06T02:38:19;9.68;;;5.80;;
23567;SDS011;11962;50.838;4.430;2024-03-06T02:40:45;8.70;;;6.03;;
23567;SDS011;11962;50.838;4.430;2024-03-06T02:43:10;8.05;;;5.97;;
23567;SDS011;11962;50.838;4.430;2024-03-06T02:45:36;9.85;;;6.57;;
23567;SDS011;11962;50.838;4.430;2024-03-06T02:48:03;10.57;;;6.68;;
23567;SDS011;11962;50.838;4.430;2024-03-06T02:50:30;8.15;;;6.32;;
23567;SDS011;11962;50.838;4.430;2024-03-06T02:52:55;7.65;;;6.03;;
23567;SDS011;11962;50.838;4.430;2024-03-06T02:55:22;9.00;;;6.65;;
23567;SDS011;11962;50.838;4.430;2024-03-06T02:57:49;8.27;;;6.32;;
23567;SDS011;11962;50.838;4.430;2024-03-06T03:00:14;6.85;;;5.75;;
23567;SDS011;11962;50.838;4.430;2024-03-06T03:02:41;8.68;;;6.45;;
23567;SDS011;11962;50.838;4.430;2024-03-06T03:05:07;9.80;;;6.75;;
23567;SDS011;11962;50.838;4.430;2024-03-06T03:07:33;10.02;;;6.32;;
23567;SDS011;11962;50.838;4.430;2024-03-06T03:09:59;11.40;;;6.55;;
23567;SDS011;11962;50.838;4.430;2024-03-06T03:12:25;8.70;;;6.28;;
23567;SDS011;11962;50.838;4.430;2024-03-06T03:14:50;9.57;;;6.88;;
23567;SDS011;11962;50.838;4.430;2024-03-06T03:17:17;7.68;;;6.25;;
23567;SDS011;11962;50.838;4.430;2024-03-06T03:19:44;9.70;;;6.90;;
23567;SDS011;11962;50.838;4.430;2024-03-06T03:22:10;10.27;;;6.70;;
23567;SDS011;11962;50.838;4.430;2024-03-06T03:24:36;10.25;;;6.43;;
23567;SDS011;11962;50.838;4.430;2024-03-06T03:27:04;11.68;;;7.10;;
23567;SDS011;11962;50.838;4.430;2024-03-06T03:29:31;12.45;;;6.22;;
23567;SDS011;11962;50.838;4.430;2024-03-06T03:31:58;10.80;;;6.47;;
23567;SDS011;11962;50.838;4.430;2024-03-06T03:34:23;9.80;;;7.15;;
23567;SDS011;11962;50.838;4.430;2024-03-06T03:36:49;8.65;;;6.63;;
23567;SDS011;11962;50.838;4.430;2024-03-06T03:39:15;9.85;;;7.13;;
23567;SDS011;11962;50.838;4.430;2024-03-06T03:41:46;10.15;;;6.97;;
23567;SDS011;11962;50.838;4.430;2024-03-06T03:44:15;10.35;;;7.18;;
23567;SDS011;11962;50.838;4.430;2024-03-06T03:46:42;9.13;;;7.63;;
23567;SDS011;11962;50.838;4.430;2024-03-06T03:49:08;12.02;;;7.28;;
23567;SDS011;11962;50.838;4.430;2024-03-06T03:51:35;13.77;;;6.82;;
23567;SDS011;11962;50.838;4.430;2024-03-06T03:54:01;11.57;;;7.60;;
23567;SDS011;11962;50.838;4.430;2024-03-06T03:56:27;10.98;;;7.80;;
23567;SDS011;11962;50.838;4.430;2024-03-06T03:58:53;8.15;;;6.55;;
23567;SDS011;11962;50.838;4.430;2024-03-06T04:01:19;10.15;;;7.10;;
23567;SDS011;11962;50.838;4.430;2024-03-06T04:03:45;9.70;;;7.20;;
23567;SDS011;11962;50.838;4.430;2024-03-06T04:06:11;8.98;;;6.60;;
23567;SDS011;11962;50.838;4.430;2024-03-06T04:08:36;12.50;;;7.25;;
23567;SDS011;11962;50.838;4.430;2024-03-06T04:11:06;8.25;;;6.72;;
23567;SDS011;11962;50.838;4.430;2024-03-06T04:13:34;10.68;;;7.30;;
23567;SDS011;11962;50.838;4.430;2024-03-06T04:16:01;11.52;;;7.25;;
23567;SDS011;11962;50.838;4.430;2024-03-06T04:18:28;11.25;;;7.18;;
23567;SDS011;11962;50.838;4.430;2024-03-06T04:20:54;10.60;;;7.32;;
23567;SDS011;11962;50.838;4.430;2024-03-06T04:23:20;10.27;;;7.15;;
23567;SDS011;11962;50.838;4.430;2024-03-06T04:25:45;9.63;;;7.22;;
23567;SDS011;11962;50.838;4.430;2024-03-06T04:28:11;9.88;;;6.65;;
23567;SDS011;11962;50.838;4.430;2024-03-06T04:30:37;10.93;;;7.28;;
23567;SDS011;11962;50.838;4.430;2024-03-06T04:33:03;8.90;;;7.18;;
23567;SDS011;11962;50.838;4.430;2024-03-06T04:35:29;8.85;;;7.18;;
23567;SDS011;11962;50.838;4.430;2024-03-06T04:37:55;9.48;;;7.20;;
23567;SDS011;11962;50.838;4.430;2024-03-06T04:40:20;13.68;;;7.60;;
23567;SDS011;11962;50.838;4.430;2024-03-06T04:42:47;9.93;;;7.07;;
23567;SDS011;11962;50.838;4.430;2024-03-06T04:45:16;11.63;;;7.15;;
23567;SDS011;11962;50.838;4.430;2024-03-06T04:47:43;9.35;;;7.07;;
23567;SDS011;11962;50.838;4.430;2024-03-06T04:50:12;11.05;;;7.00;;
23567;SDS011;11962;50.838;4.430;2024-03-06T04:52:39;13.02;;;6.97;;
23567;SDS011;11962;50.838;4.430;2024-03-06T04:55:06;10.25;;;7.47;;
23567;SDS011;11962;50.838;4.430;2024-03-06T04:57:32;10.43;;;7.03;;
23567;SDS011;11962;50.838;4.430;2024-03-06T04:59:59;8.52;;;6.80;;
23567;SDS011;11962;50.838;4.430;2024-03-06T05:02:27;9.65;;;7.45;;
23567;SDS011;11962;50.838;4.430;2024-03-06T05:04:53;13.57;;;7.32;;
23567;SDS011;11962;50.838;4.430;2024-03-06T05:07:18;9.85;;;7.10;;
23567;SDS011;11962;50.838;4.430;2024-03-06T05:09:44;12.18;;;7.88;;
23567;SDS011;11962;50.838;4.430;2024-03-06T05:12:10;10.00;;;7.18;;
23567;SDS011;11962;50.838;4.430;2024-03-06T05:14:36;9.93;;;7.75;;
23567;SDS011;11962;50.838;4.430;2024-03-06T05:17:02;9.25;;;7.15;;
23567;SDS011;11962;50.838;4.430;2024-03-06T05:19:28;11.13;;;7.72;;
23567;SDS011;11962;50.838;4.430;2024-03-06T05:21:59;9.65;;;7.07;;
23567;SDS011;11962;50.838;4.430;2024-03-06T05:24:25;12.30;;;7.68;;
23567;SDS011;11962;50.838;4.430;2024-03-06T05:26:51;10.50;;;7.82;;
23567;SDS011;11962;50.838;4.430;2024-03-06T05:29:17;15.32;;;9.23;;
23567;SDS011;11962;50.838;4.430;2024-03-06T05:31:42;12.10;;;8.00;;
23567;SDS011;11962;50.838;4.430;2024-03-06T05:34:08;10.52;;;7.55;;
23567;SDS011;11962;50.838;4.430;2024-03-06T05:36:34;13.70;;;8.18;;
23567;SDS011;11962;50.838;4.430;2024-03-06T05:38:59;14.05;;;7.90;;
23567;SDS011;11962;50.838;4.430;2024-03-06T05:41:25;12.32;;;8.00;;
23567;SDS011;11962;50.838;4.430;2024-03-06T05:43:50;11.82;;;7.90;;
23567;SDS011;11962;50.838;4.430;2024-03-06T05:46:16;12.52;;;7.60;;
23567;SDS011;11962;50.838;4.430;2024-03-06T05:48:42;13.07;;;8.52;;
23567;SDS011;11962;50.838;4.430;2024-03-06T05:51:08;13.93;;;8.57;;
23567;SDS011;11962;50.838;4.430;2024-03-06T05:53:37;12.00;;;8.10;;
23567;SDS011;11962;50.838;4.430;2024-03-06T05:56:04;13.05;;;8.80;;
23567;SDS011;11962;50.838;4.430;2024-03-06T05:58:31;10.30;;;8.45;;
23567;SDS011;11962;50.838;4.430;2024-03-06T06:00:57;12.93;;;8.02;;
23567;SDS011;11962;50.838;4.430;2024-03-06T06:03:22;10.13;;;7.65;;
23567;SDS011;11962;50.838;4.430;2024-03-06T06:05:48;12.93;;;8.43;;
23567;SDS011;11962;50.838;4.430;2024-03-06T06:08:14;11.60;;;7.97;;
23567;SDS011;11962;50.838;4.430;2024-03-06T06:10:39;13.07;;;8.57;;
23567;SDS011;11962;50.838;4.430;2024-03-06T06:13:05;10.05;;;7.70;;
23567;SDS011;11962;50.838;4.430;2024-03-06T06:15:30;11.50;;;8.15;;
23567;SDS011;11962;50.838;4.430;2024-03-06T06:17:56;13.25;;;8.52;;
23567;SDS011;11962;50.838;4.430;2024-03-06T06:20:22;12.65;;;8.52;;
23567;SDS011;11962;50.838;4.430;2024-03-06T06:22:49;12.18;;;8.80;;
23567;SDS011;11962;50.838;4.430;2024-03-06T06:25:15;11.63;;;8.38;;
23567;SDS011;11962;50.838;4.430;2024-03-06T06:27:41;10.95;;;8.07;;
23567;SDS011;11962;50.838;4.430;2024-03-06T06:30:07;12.63;;;7.97;;
23567;SDS011;11962;50.838;4.430;2024-03-06T06:32:39;12.20;;;8.52;;
23567;SDS011;11962;50.838;4.430;2024-03-06T06:35:05;12.52;;;8.90;;
23567;SDS011;11962;50.838;4.430;2024-03-06T06:37:31;15.90;;;8.45;;
23567;SDS011;11962;50.838;4.430;2024-03-06T06:39:57;12.52;;;8.55;;
23567;SDS011;11962;50.838;4.430;2024-03-06T06:42:24;14.50;;;8.90;;
23567;SDS011;11962;50.838;4.430;2024-03-06T06:44:50;11.73;;;8.25;;
23567;SDS011;11962;50.838;4.430;2024-03-06T06:47:16;12.85;;;8.52;;
23567;SDS011;11962;50.838;4.430;2024-03-06T06:49:42;15.20;;;8.57;;
23567;SDS011;11962;50.838;4.430;2024-03-06T06:52:07;11.75;;;8.52;;
23567;SDS011;11962;50.838;4.430;2024-03-06T06:54:33;12.55;;;8.70;;
23567;SDS011;11962;50.838;4.430;2024-03-06T06:56:59;14.27;;;8.65;;
23567;SDS011;11962;50.838;4.430;2024-03-06T06:59:24;13.27;;;9.13;;
23567;SDS011;11962;50.838;4.430;2024-03-06T07:01:50;12.55;;;8.55;;
23567;SDS011;11962;50.838;4.430;2024-03-06T07:04:16;12.55;;;8.77;;
23567;SDS011;11962;50.838;4.430;2024-03-06T07:06:45;17.40;;;8.98;;
23567;SDS011;11962;50.838;4.430;2024-03-06T07:09:11;13.23;;;8.98;;
23567;SDS011;11962;50.838;4.430;2024-03-06T07:11:39;13.97;;;9.10;;
23567;SDS011;11962;50.838;4.430;2024-03-06T07:14:04;16.17;;;9.10;;
23567;SDS011;11962;50.838;4.430;2024-03-06T07:16:30;13.95;;;9.20;;
23567;SDS011;11962;50.838;4.430;2024-03-06T07:18:55;14.02;;;9.13;;
23567;SDS011;11962;50.838;4.430;2024-03-06T07:21:22;13.40;;;8.90;;
23567;SDS011;11962;50.838;4.430;2024-03-06T07:23:47;14.68;;;9.10;;
23567;SDS011;11962;50.838;4.430;2024-03-06T07:26:13;12.90;;;8.63;;
23567;SDS011;11962;50.838;4.430;2024-03-06T07:28:38;13.77;;;8.93;;
23567;SDS011;11962;50.838;4.430;2024-03-06T07:31:04;14.00;;;8.88;;
23567;SDS011;11962;50.838;4.430;2024-03-06T07:33:30;14.73;;;9.25;;
23567;SDS011;11962;50.838;4.430;2024-03-06T07:35:58;15.82;;;9.40;;
23567;SDS011;11962;50.838;4.430;2024-03-06T07:38:24;14.27;;;8.90;;
23567;SDS011;11962;50.838;4.430;2024-03-06T07:40:50;14.15;;;9.35;;
23567;SDS011;11962;50.838;4.430;2024-03-06T07:43:16;14.65;;;8.45;;
23567;SDS011;11962;50.838;4.430;2024-03-06T07:45:41;14.98;;;9.55;;
23567;SDS011;11962;50.838;4.430;2024-03-06T07:48:07;15.05;;;9.00;;
23567;SDS011;11962;50.838;4.430;2024-03-06T07:50:34;15.32;;;9.10;;
23567;SDS011;11962;50.838;4.430;2024-03-06T07:53:00;15.88;;;9.40;;
23567;SDS011;11962;50.838;4.430;2024-03-06T07:55:27;18.90;;;10.00;;
23567;SDS011;11962;50.838;4.430;2024-03-06T07:57:53;15.90;;;9.10;;
23567;SDS011;11962;50.838;4.430;2024-03-06T08:00:18;13.10;;;8.70;;
23567;SDS011;11962;50.838;4.430;2024-03-06T08:02:45;13.38;;;8.60;;
23567;SDS011;11962;50.838;4.430;2024-03-06T08:05:15;18.63;;;8.85;;
23567;SDS011;11962;50.838;4.430;2024-03-06T08:07:41;13.23;;;8.40;;
23567;SDS011;11962;50.838;4.430;2024-03-06T08:10:10;16.27;;;8.43;;
23567;SDS011;11962;50.838;4.430;2024-03-06T08:12:40;14.07;;;8.52;;
23567;SDS011;11962;50.838;4.430;2024-03-06T08:21:04;14.45;;;8.20;;
23567;SDS011;11962;50.838;4.430;2024-03-06T08:23:31;13.55;;;8.63;;
23567;SDS011;11962;50.838;4.430;2024-03-06T08:25:57;14.23;;;8.38;;
23567;SDS011;11962;50.838;4.430;2024-03-06T08:28:22;12.65;;;8.27;;
23567;SDS011;11962;50.838;4.430;2024-03-06T08:30:48;17.88;;;7.85;;
23567;SDS011;11962;50.838;4.430;2024-03-06T08:33:14;14.85;;;7.38;;
23567;SDS011;11962;50.838;4.430;2024-03-06T08:35:40;8.77;;;5.78;;
23567;SDS011;11962;50.838;4.430;2024-03-06T08:38:06;7.90;;;5.32;;
23567;SDS011;11962;50.838;4.430;2024-03-06T08:40:32;9.07;;;5.00;;
23567;SDS011;11962;50.838;4.430;2024-03-06T08:42:58;9.45;;;4.75;;
23567;SDS011;11962;50.838;4.430;2024-03-06T08:45:24;6.75;;;3.30;;
23567;SDS011;11962;50.838;4.430;2024-03-06T08:47:50;4.47;;;2.78;;
23567;SDS011;11962;50.838;4.430;2024-03-06T08:50:17;7.85;;;3.25;;
23567;SDS011;11962;50.838;4.430;2024-03-06T08:52:42;5.18;;;2.97;;
23567;SDS011;11962;50.838;4.430;2024-03-06T08:55:09;5.38;;;2.90;;
23567;SDS011;11962;50.838;4.430;2024-03-06T08:57:35;8.75;;;3.40;;
23567;SDS011;11962;50.838;4.430;2024-03-06T09:00:01;7.68;;;3.63;;
23567;SDS011;11962;50.838;4.430;2024-03-06T09:02:28;8.83;;;3.73;;
23567;SDS011;11962;50.838;4.430;2024-03-06T09:04:55;7.55;;;3.90;;
23567;SDS011;11962;50.838;4.430;2024-03-06T09:07:21;9.30;;;4.25;;
23567;SDS011;11962;50.838;4.430;2024-03-06T09:09:50;5.22;;;3.60;;
23567;SDS011;11962;50.838;4.430;2024-03-06T09:12:18;5.95;;;4.05;;
23567;SDS011;11962;50.838;4.430;2024-03-06T09:14:44;4.57;;;3.67;;
23567;SDS011;11962;50.838;4.430;2024-03-06T09:17:10;5.57;;;3.75;;
23567;SDS011;11962;50.838;4.430;2024-03-06T09:19:39;4.93;;;3.13;;
23567;SDS011;11962;50.838;4.430;2024-03-06T09:22:06;6.63;;;3.15;;
23567;SDS011;11962;50.838;4.430;2024-03-06T09:24:32;7.78;;;3.35;;
23567;SDS011;11962;50.838;4.430;2024-03-06T09:27:00;6.93;;;3.20;;
23567;SDS011;11962;50.838;4.430;2024-03-06T09:29:26;4.88;;;2.92;;
23567;SDS011;11962;50.838;4.430;2024-03-06T09:31:52;5.90;;;3.17;;
23567;SDS011;11962;50.838;4.430;2024-03-06T09:34:17;5.38;;;3.00;;
23567;SDS011;11962;50.838;4.430;2024-03-06T09:36:47;7.38;;;3.13;;
23567;SDS011;11962;50.838;4.430;2024-03-06T09:39:17;3.92;;;3.00;;
23567;SDS011;11962;50.838;4.430;2024-03-06T09:41:50;5.68;;;2.88;;
23567;SDS011;11962;50.838;4.430;2024-03-06T09:44:17;3.13;;;2.72;;
23567;SDS011;11962;50.838;4.430;2024-03-06T09:46:46;6.18;;;2.90;;
23567;SDS011;11962;50.838;4.430;2024-03-06T10:12:29;3.20;;;2.63;;
23567;SDS011;11962;50.838;4.430;2024-03-06T10:14:55;4.85;;;2.97;;
23567;SDS011;11962;50.838;4.430;2024-03-06T10:17:21;5.75;;;2.55;;
23567;SDS011;11962;50.838;4.430;2024-03-06T10:19:48;5.88;;;2.60;;
23567;SDS011;11962;50.838;4.430;2024-03-06T10:22:17;6.32;;;2.75;;
23567;SDS011;11962;50.838;4.430;2024-03-06T10:24:49;5.43;;;2.80;;
23567;SDS011;11962;50.838;4.430;2024-03-06T10:27:15;3.85;;;2.42;;
23567;SDS011;11962;50.838;4.430;2024-03-06T10:29:42;4.10;;;2.33;;
23567;SDS011;11962;50.838;4.430;2024-03-06T10:32:08;2.92;;;2.10;;
23567;SDS011;11962;50.838;4.430;2024-03-06T10:34:35;3.05;;;2.70;;
23567;SDS011;11962;50.838;4.430;2024-03-06T10:37:02;5.60;;;2.60;;
23567;SDS011;11962;50.838;4.430;2024-03-06T10:39:34;5.85;;;3.28;;
23567;SDS011;11962;50.838;4.430;2024-03-06T10:42:06;6.40;;;3.10;;
23567;SDS011;11962;50.838;4.430;2024-03-06T10:44:33;4.97;;;3.03;;
23567;SDS011;11962;50.838;4.430;2024-03-06T10:47:00;8.57;;;5.20;;
23567;SDS011;11962;50.838;4.430;2024-03-06T10:49:28;6.82;;;3.30;;
23567;SDS011;11962;50.838;4.430;2024-03-06T10:52:01;7.53;;;3.08;;
23567;SDS011;11962;50.838;4.430;2024-03-06T10:54:31;7.65;;;3.05;;
23567;SDS011;11962;50.838;4.430;2024-03-06T10:57:00;7.00;;;3.00;;
23567;SDS011;11962;50.838;4.430;2024-03-06T10:59:27;4.22;;;2.67;;
23567;SDS011;11962;50.838;4.430;2024-03-06T11:04:21;4.40;;;2.40;;
23567;SDS011;11962;50.838;4.430;2024-03-06T11:06:54;4.35;;;2.40;;
23567;SDS011;11962;50.838;4.430;2024-03-06T11:09:24;5.80;;;2.70;;
23567;SDS011;11962;50.838;4.430;2024-03-06T11:11:51;4.15;;;2.38;;
23567;SDS011;11962;50.838;4.430;2024-03-06T11:14:18;4.40;;;2.20;;
23567;SDS011;11962;50.838;4.430;2024-03-06T11:19:21;8.05;;;2.25;;
23567;SDS011;11962;50.838;4.430;2024-03-06T11:21:46;4.05;;;2.60;;
23567;SDS011;11962;50.838;4.430;2024-03-06T11:26:49;3.25;;;1.80;;
23567;SDS011;11962;50.838;4.430;2024-03-06T11:32:57;3.22;;;1.90;;
23567;SDS011;11962;50.838;4.430;2024-03-06T11:35:24;5.35;;;2.85;;
23567;SDS011;11962;50.838;4.430;2024-03-06T11:37:50;5.10;;;2.47;;
23567;SDS011;11962;50.838;4.430;2024-03-06T11:40:22;4.68;;;2.65;;
23567;SDS011;11962;50.838;4.430;2024-03-06T11:42:49;4.90;;;2.60;;
23567;SDS011;11962;50.838;4.430;2024-03-06T11:45:18;6.72;;;2.42;;
23567;SDS011;11962;50.838;4.430;2024-03-06T11:47:56;7.20;;;2.70;;
23567;SDS011;11962;50.838;4.430;2024-03-06T11:50:26;7.75;;;2.50;;
23567;SDS011;11962;50.838;4.430;2024-03-06T11:52:53;4.13;;;2.33;;
23567;SDS011;11962;50.838;4.430;2024-03-06T11:55:22;3.60;;;2.40;;
23567;SDS011;11962;50.838;4.430;2024-03-06T11:57:50;4.68;;;2.10;;
23567;SDS011;11962;50.838;4.430;2024-03-06T12:00:18;5.55;;;2.63;;
23567;SDS011;11962;50.838;4.430;2024-03-06T12:02:50;4.30;;;2.00;;
23567;SDS011;11962;50.838;4.430;2024-03-06T12:05:17;6.22;;;2.10;;
23567;SDS011;11962;50.838;4.430;2024-03-06T12:07:49;7.15;;;2.60;;
23567;SDS011;11962;50.838;4.430;2024-03-06T12:10:18;6.93;;;2.40;;
23567;SDS011;11962;50.838;4.430;2024-03-06T12:16:07;4.40;;;2.30;;
23567;SDS011;11962;50.838;4.430;2024-03-06T12:18:33;6.10;;;2.58;;
23567;SDS011;11962;50.838;4.430;2024-03-06T12:21:02;6.00;;;2.53;;
23567;SDS011;11962;50.838;4.430;2024-03-06T12:23:30;6.55;;;2.40;;
23567;SDS011;11962;50.838;4.430;2024-03-06T12:26:05;5.93;;;2.40;;
23567;SDS011;11962;50.838;4.430;2024-03-06T12:28:36;5.43;;;2.45;;
23567;SDS011;11962;50.838;4.430;2024-03-06T12:31:03;5.93;;;2.50;;
23567;SDS011;11962;50.838;4.430;2024-03-06T12:33:29;4.10;;;2.30;;
23567;SDS011;11962;50.838;4.430;2024-03-06T12:38:32;4.65;;;2.28;;
23567;SDS011;11962;50.838;4.430;2024-03-06T12:40:58;6.75;;;2.60;;
23567;SDS011;11962;50.838;4.430;2024-03-06T12:43:25;6.22;;;2.60;;
23567;SDS011;11962;50.838;4.430;2024-03-06T12:48:28;4.75;;;2.85;;
23567;SDS011;11962;50.838;4.430;2024-03-06T12:50:55;5.72;;;2.90;;
23567;SDS011;11962;50.838;4.430;2024-03-06T12:53:21;7.40;;;3.15;;
23567;SDS011;11962;50.838;4.430;2024-03-06T12:55:47;6.30;;;3.30;;
23567;SDS011;11962;50.838;4.430;2024-03-06T12:58:13;5.88;;;3.10;;
23567;SDS011;11962;50.838;4.430;2024-03-06T13:00:39;9.38;;;3.75;;
23567;SDS011;11962;50.838;4.430;2024-03-06T13:03:06;7.25;;;3.40;;
23567;SDS011;11962;50.838;4.430;2024-03-06T13:05:31;6.70;;;3.50;;
23567;SDS011;11962;50.838;4.430;2024-03-06T13:07:57;6.28;;;3.03;;
23567;SDS011;11962;50.838;4.430;2024-03-06T13:10:24;7.95;;;3.30;;
23567;SDS011;11962;50.838;4.430;2024-03-06T13:12:50;8.55;;;3.60;;
23567;SDS011;11962;50.838;4.430;2024-03-06T13:15:16;3.75;;;2.83;;
23567;SDS011;11962;50.838;4.430;2024-03-06T13:17:42;7.35;;;3.45;;
23567;SDS011;11962;50.838;4.430;2024-03-06T13:20:07;8.63;;;3.10;;
23567;SDS011;11962;50.838;4.430;2024-03-06T13:22:37;5.07;;;3.00;;
23567;SDS011;11962;50.838;4.430;2024-03-06T13:25:03;6.43;;;2.70;;
23567;SDS011;11962;50.838;4.430;2024-03-06T13:27:29;6.97;;;3.10;;
23567;SDS011;11962;50.838;4.430;2024-03-06T13:29:56;5.45;;;2.90;;
23567;SDS011;11962;50.838;4.430;2024-03-06T13:32:21;6.00;;;3.05;;
23567;SDS011;11962;50.838;4.430;2024-03-06T13:34:47;7.78;;;3.13;;
23567;SDS011;11962;50.838;4.430;2024-03-06T13:37:14;5.72;;;3.15;;
23567;SDS011;11962;50.838;4.430;2024-03-06T13:39:40;7.05;;;2.90;;
23567;SDS011;11962;50.838;4.430;2024-03-06T13:42:06;8.38;;;2.70;;
23567;SDS011;11962;50.838;4.430;2024-03-06T13:44:33;5.43;;;2.47;;
23567;SDS011;11962;50.838;4.430;2024-03-06T13:47:02;7.10;;;2.50;;
23567;SDS011;11962;50.838;4.430;2024-03-06T13:49:38;7.30;;;2.67;;
23567;SDS011;11962;50.838;4.430;2024-03-06T13:52:05;6.40;;;2.83;;
23567;SDS011;11962;50.838;4.430;2024-03-06T13:54:33;5.03;;;2.80;;
23567;SDS011;11962;50.838;4.430;2024-03-06T13:56:59;5.15;;;2.40;;
23567;SDS011;11962;50.838;4.430;2024-03-06T13:59:31;6.30;;;2.75;;
23567;SDS011;11962;50.838;4.430;2024-03-06T14:01:56;4.13;;;2.03;;
23567;SDS011;11962;50.838;4.430;2024-03-06T14:04:24;5.47;;;2.42;;
23567;SDS011;11962;50.838;4.430;2024-03-06T14:06:50;8.15;;;2.38;;
23567;SDS011;11962;50.838;4.430;2024-03-06T14:09:16;5.25;;;2.17;;
23567;SDS011;11962;50.838;4.430;2024-03-06T14:11:41;5.75;;;2.30;;
23567;SDS011;11962;50.838;4.430;2024-03-06T14:14:07;4.03;;;1.80;;
23567;SDS011;11962;50.838;4.430;2024-03-06T14:16:34;4.30;;;2.00;;
23567;SDS011;11962;50.838;4.430;2024-03-06T14:19:00;4.47;;;2.10;;
23567;SDS011;11962;50.838;4.430;2024-03-06T14:21:25;5.45;;;2.38;;
23567;SDS011;11962;50.838;4.430;2024-03-06T14:23:51;3.42;;;2.13;;
23567;SDS011;11962;50.838;4.430;2024-03-06T14:26:17;5.00;;;1.98;;
23567;SDS011;11962;50.838;4.430;2024-03-06T14:28:43;4.68;;;1.90;;
23567;SDS011;11962;50.838;4.430;2024-03-06T14:31:09;6.35;;;2.10;;
23567;SDS011;11962;50.838;4.430;2024-03-06T14:33:41;8.50;;;2.33;;
23567;SDS011;11962;50.838;4.430;2024-03-06T14:36:07;4.50;;;2.20;;
23567;SDS011;11962;50.838;4.430;2024-03-06T14:38:33;4.30;;;2.45;;
23567;SDS011;11962;50.838;4.430;2024-03-06T14:40:58;6.32;;;2.30;;
23567;SDS011;11962;50.838;4.430;2024-03-06T14:43:24;7.10;;;2.35;;
23567;SDS011;11962;50.838;4.430;2024-03-06T14:45:50;5.75;;;2.00;;
23567;SDS011;11962;50.838;4.430;2024-03-06T14:48:16;3.95;;;2.05;;
23567;SDS011;11962;50.838;4.430;2024-03-06T14:50:43;6.07;;;2.13;;
23567;SDS011;11962;50.838;4.430;2024-03-06T14:53:08;5.10;;;2.35;;
23567;SDS011;11962;50.838;4.430;2024-03-06T14:55:34;4.85;;;1.80;;
23567;SDS011;11962;50.838;4.430;2024-03-06T14:58:00;4.93;;;2.42;;
23567;SDS011;11962;50.838;4.430;2024-03-06T15:00:26;6.90;;;2.65;;
23567;SDS011;11962;50.838;4.430;2024-03-06T15:02:51;5.78;;;2.97;;
23567;SDS011;11962;50.838;4.430;2024-03-06T15:05:17;3.90;;;2.25;;
23567;SDS011;11962;50.838;4.430;2024-03-06T15:07:43;6.85;;;2.63;;
23567;SDS011;11962;50.838;4.430;2024-03-06T15:10:09;7.13;;;2.35;;
23567;SDS011;11962;50.838;4.430;2024-03-06T15:12:34;3.78;;;2.10;;
23567;SDS011;11962;50.838;4.430;2024-03-06T15:15:03;3.65;;;2.28;;
23567;SDS011;11962;50.838;4.430;2024-03-06T15:17:31;5.03;;;2.45;;
23567;SDS011;11962;50.838;4.430;2024-03-06T15:19:58;6.22;;;2.08;;
23567;SDS011;11962;50.838;4.430;2024-03-06T15:22:24;5.13;;;2.17;;
23567;SDS011;11962;50.838;4.430;2024-03-06T15:24:50;5.80;;;2.10;;
23567;SDS011;11962;50.838;4.430;2024-03-06T15:27:16;5.82;;;2.33;;
23567;SDS011;11962;50.838;4.430;2024-03-06T15:29:42;5.80;;;1.85;;
23567;SDS011;11962;50.838;4.430;2024-03-06T15:32:08;5.95;;;2.35;;